sensor_id;sensor_type;location;lat;lon;timestamp;P1;durP1;ratioP1;P2;durP2;ratioP2
23179;SDS011;11758;45.756;11.432;2022-12-13T00:01:31;15.77;;;7.63;;
23179;SDS011;11758;45.756;11.432;2022-12-13T00:04:05;11.33;;;6.67;;
23179;SDS011;11758;45.756;11.432;2022-12-13T00:06:35;9.10;;;5.63;;
23179;SDS011;11758;45.756;11.432;2022-12-13T00:09:02;12.40;;;6.50;;
23179;SDS011;11758;45.756;11.432;2022-12-13T00:11:29;10.97;;;6.63;;
23179;SDS011;11758;45.756;11.432;2022-12-13T00:13:55;10.10;;;6.43;;
23179;SDS011;11758;45.756;11.432;2022-12-13T00:16:23;14.73;;;7.43;;
23179;SDS011;11758;45.756;11.432;2022-12-13T00:18:51;10.27;;;6.63;;
23179;SDS011;11758;45.756;11.432;2022-12-13T00:21:20;8.60;;;6.00;;
23179;SDS011;11758;45.756;11.432;2022-12-13T00:23:50;9.07;;;5.77;;
23179;SDS011;11758;45.756;11.432;2022-12-13T00:26:20;9.50;;;6.43;;
23179;SDS011;11758;45.756;11.432;2022-12-13T00:28:47;13.63;;;6.87;;
23179;SDS011;11758;45.756;11.432;2022-12-13T00:31:21;11.00;;;6.57;;
23179;SDS011;11758;45.756;11.432;2022-12-13T00:33:52;9.07;;;5.23;;
23179;SDS011;11758;45.756;11.432;2022-12-13T00:36:19;12.60;;;6.07;;
23179;SDS011;11758;45.756;11.432;2022-12-13T00:38:46;11.63;;;6.70;;
23179;SDS011;11758;45.756;11.432;2022-12-13T00:41:25;9.50;;;5.97;;
23179;SDS011;11758;45.756;11.432;2022-12-13T00:43:54;15.97;;;8.73;;
23179;SDS011;11758;45.756;11.432;2022-12-13T00:46:21;22.17;;;9.13;;
23179;SDS011;11758;45.756;11.432;2022-12-13T00:48:51;9.90;;;5.83;;
23179;SDS011;11758;45.756;11.432;2022-12-13T00:51:18;9.93;;;6.07;;
23179;SDS011;11758;45.756;11.432;2022-12-13T00:53:49;10.70;;;6.47;;
23179;SDS011;11758;45.756;11.432;2022-12-13T00:56:26;9.93;;;6.10;;
23179;SDS011;11758;45.756;11.432;2022-12-13T00:58:53;9.33;;;5.70;;
23179;SDS011;11758;45.756;11.432;2022-12-13T01:01:21;9.00;;;5.33;;
23179;SDS011;11758;45.756;11.432;2022-12-13T01:03:49;9.00;;;5.23;;
23179;SDS011;11758;45.756;11.432;2022-12-13T01:06:22;4.87;;;4.20;;
23179;SDS011;11758;45.756;11.432;2022-12-13T01:08:54;7.23;;;4.53;;
23179;SDS011;11758;45.756;11.432;2022-12-13T01:11:21;6.83;;;4.80;;
23179;SDS011;11758;45.756;11.432;2022-12-13T01:13:47;6.10;;;4.23;;
23179;SDS011;11758;45.756;11.432;2022-12-13T01:16:14;5.80;;;3.67;;
23179;SDS011;11758;45.756;11.432;2022-12-13T01:18:44;5.30;;;3.93;;
23179;SDS011;11758;45.756;11.432;2022-12-13T01:21:12;4.30;;;3.90;;
23179;SDS011;11758;45.756;11.432;2022-12-13T01:23:39;5.43;;;3.70;;
23179;SDS011;11758;45.756;11.432;2022-12-13T01:26:09;5.70;;;4.23;;
23179;SDS011;11758;45.756;11.432;2022-12-13T01:28:36;6.73;;;4.30;;
23179;SDS011;11758;45.756;11.432;2022-12-13T01:31:04;5.33;;;3.97;;
23179;SDS011;11758;45.756;11.432;2022-12-13T01:33:30;5.10;;;4.00;;
23179;SDS011;11758;45.756;11.432;2022-12-13T01:35:59;5.77;;;4.30;;
23179;SDS011;11758;45.756;11.432;2022-12-13T01:38:25;5.53;;;3.93;;
23179;SDS011;11758;45.756;11.432;2022-12-13T01:40:53;4.30;;;3.90;;
23179;SDS011;11758;45.756;11.432;2022-12-13T01:46:06;6.70;;;4.63;;
23179;SDS011;11758;45.756;11.432;2022-12-13T01:48:37;5.40;;;4.17;;
23179;SDS011;11758;45.756;11.432;2022-12-13T01:51:05;7.80;;;5.10;;
23179;SDS011;11758;45.756;11.432;2022-12-13T01:53:37;8.97;;;4.93;;
23179;SDS011;11758;45.756;11.432;2022-12-13T01:56:08;7.13;;;4.77;;
23179;SDS011;11758;45.756;11.432;2022-12-13T01:58:35;6.27;;;4.63;;
23179;SDS011;11758;45.756;11.432;2022-12-13T02:01:02;5.67;;;4.33;;
23179;SDS011;11758;45.756;11.432;2022-12-13T02:03:28;5.20;;;4.57;;
23179;SDS011;11758;45.756;11.432;2022-12-13T02:08:20;6.90;;;5.60;;
23179;SDS011;11758;45.756;11.432;2022-12-13T02:10:47;7.83;;;5.37;;
23179;SDS011;11758;45.756;11.432;2022-12-13T02:13:13;8.13;;;5.77;;
23179;SDS011;11758;45.756;11.432;2022-12-13T02:21:00;6.70;;;4.13;;
23179;SDS011;11758;45.756;11.432;2022-12-13T02:31:11;5.60;;;4.10;;
23179;SDS011;11758;45.756;11.432;2022-12-13T02:36:15;5.43;;;3.53;;
23179;SDS011;11758;45.756;11.432;2022-12-13T02:38:49;5.37;;;3.53;;
23179;SDS011;11758;45.756;11.432;2022-12-13T02:46:12;5.10;;;3.47;;
23179;SDS011;11758;45.756;11.432;2022-12-13T02:48:40;4.37;;;3.40;;
23179;SDS011;11758;45.756;11.432;2022-12-13T02:51:08;4.73;;;3.30;;
23179;SDS011;11758;45.756;11.432;2022-12-13T02:53:37;3.50;;;3.10;;
23179;SDS011;11758;45.756;11.432;2022-12-13T02:56:04;4.60;;;3.73;;
23179;SDS011;11758;45.756;11.432;2022-12-13T02:58:34;3.50;;;3.20;;
23179;SDS011;11758;45.756;11.432;2022-12-13T03:03:41;4.80;;;3.87;;
23179;SDS011;11758;45.756;11.432;2022-12-13T03:11:21;4.73;;;3.40;;
23179;SDS011;11758;45.756;11.432;2022-12-13T03:13:50;2.70;;;2.50;;
23179;SDS011;11758;45.756;11.432;2022-12-13T03:18:46;2.70;;;2.50;;
23179;SDS011;11758;45.756;11.432;2022-12-13T03:21:13;2.73;;;2.50;;
23179;SDS011;11758;45.756;11.432;2022-12-13T03:23:40;3.13;;;2.60;;
23179;SDS011;11758;45.756;11.432;2022-12-13T03:26:10;4.10;;;2.43;;
23179;SDS011;11758;45.756;11.432;2022-12-13T03:28:38;2.30;;;2.17;;
23179;SDS011;11758;45.756;11.432;2022-12-13T03:31:05;3.63;;;2.60;;
23179;SDS011;11758;45.756;11.432;2022-12-13T03:33:32;2.60;;;2.40;;
23179;SDS011;11758;45.756;11.432;2022-12-13T03:35:58;5.93;;;3.03;;
23179;SDS011;11758;45.756;11.432;2022-12-13T03:38:24;4.57;;;3.00;;
23179;SDS011;11758;45.756;11.432;2022-12-13T03:40:52;5.63;;;3.13;;
23179;SDS011;11758;45.756;11.432;2022-12-13T03:43:18;3.40;;;3.03;;
23179;SDS011;11758;45.756;11.432;2022-12-13T03:45:45;5.27;;;3.07;;
23179;SDS011;11758;45.756;11.432;2022-12-13T03:48:11;4.47;;;2.60;;
23179;SDS011;11758;45.756;11.432;2022-12-13T03:50:37;2.77;;;2.57;;
23179;SDS011;11758;45.756;11.432;2022-12-13T03:53:03;3.43;;;2.93;;
23179;SDS011;11758;45.756;11.432;2022-12-13T03:55:29;4.40;;;2.97;;
23179;SDS011;11758;45.756;11.432;2022-12-13T03:57:55;5.30;;;2.80;;
23179;SDS011;11758;45.756;11.432;2022-12-13T04:00:21;3.17;;;2.80;;
23179;SDS011;11758;45.756;11.432;2022-12-13T04:02:47;3.73;;;3.07;;
23179;SDS011;11758;45.756;11.432;2022-12-13T04:05:13;5.13;;;2.73;;
23179;SDS011;11758;45.756;11.432;2022-12-13T04:07:40;4.07;;;3.00;;
23179;SDS011;11758;45.756;11.432;2022-12-13T04:10:06;5.47;;;3.03;;
23179;SDS011;11758;45.756;11.432;2022-12-13T04:12:32;2.90;;;2.70;;
23179;SDS011;11758;45.756;11.432;2022-12-13T04:15:17;5.33;;;3.27;;
23179;SDS011;11758;45.756;11.432;2022-12-13T04:17:43;3.30;;;3.00;;
23179;SDS011;11758;45.756;11.432;2022-12-13T04:20:09;3.00;;;2.57;;
23179;SDS011;11758;45.756;11.432;2022-12-13T04:22:35;4.50;;;2.83;;
23179;SDS011;11758;45.756;11.432;2022-12-13T04:25:02;4.80;;;3.50;;
23179;SDS011;11758;45.756;11.432;2022-12-13T04:27:28;3.63;;;3.33;;
23179;SDS011;11758;45.756;11.432;2022-12-13T04:29:54;4.00;;;3.20;;
23179;SDS011;11758;45.756;11.432;2022-12-13T04:32:21;7.17;;;4.37;;
23179;SDS011;11758;45.756;11.432;2022-12-13T04:34:47;8.77;;;4.10;;
23179;SDS011;11758;45.756;11.432;2022-12-13T04:37:13;4.90;;;3.73;;
23179;SDS011;11758;45.756;11.432;2022-12-13T04:39:39;9.00;;;4.47;;
23179;SDS011;11758;45.756;11.432;2022-12-13T04:42:05;8.63;;;4.93;;
23179;SDS011;11758;45.756;11.432;2022-12-13T04:44:31;12.00;;;4.93;;
23179;SDS011;11758;45.756;11.432;2022-12-13T04:46:57;5.33;;;4.37;;
23179;SDS011;11758;45.756;11.432;2022-12-13T04:49:23;4.93;;;3.40;;
23179;SDS011;11758;45.756;11.432;2022-12-13T04:51:49;3.70;;;3.23;;
23179;SDS011;11758;45.756;11.432;2022-12-13T04:54:15;4.90;;;3.47;;
23179;SDS011;11758;45.756;11.432;2022-12-13T04:56:41;3.67;;;3.37;;
23179;SDS011;11758;45.756;11.432;2022-12-13T04:59:08;5.37;;;4.00;;
23179;SDS011;11758;45.756;11.432;2022-12-13T05:01:34;10.07;;;5.97;;
23179;SDS011;11758;45.756;11.432;2022-12-13T05:04:01;6.37;;;3.90;;
23179;SDS011;11758;45.756;11.432;2022-12-13T05:06:27;5.80;;;4.20;;
23179;SDS011;11758;45.756;11.432;2022-12-13T05:08:53;11.73;;;5.43;;
23179;SDS011;11758;45.756;11.432;2022-12-13T05:11:19;13.07;;;4.57;;
23179;SDS011;11758;45.756;11.432;2022-12-13T05:13:46;7.13;;;4.90;;
23179;SDS011;11758;45.756;11.432;2022-12-13T05:16:12;8.77;;;5.93;;
23179;SDS011;11758;45.756;11.432;2022-12-13T05:18:40;6.00;;;4.30;;
23179;SDS011;11758;45.756;11.432;2022-12-13T05:21:08;11.33;;;4.10;;
23179;SDS011;11758;45.756;11.432;2022-12-13T05:23:34;5.80;;;4.00;;
23179;SDS011;11758;45.756;11.432;2022-12-13T05:26:00;6.07;;;4.53;;
23179;SDS011;11758;45.756;11.432;2022-12-13T05:28:27;7.73;;;4.20;;
23179;SDS011;11758;45.756;11.432;2022-12-13T05:30:54;8.03;;;4.97;;
23179;SDS011;11758;45.756;11.432;2022-12-13T05:33:21;7.23;;;4.33;;
23179;SDS011;11758;45.756;11.432;2022-12-13T05:35:47;15.50;;;6.10;;
23179;SDS011;11758;45.756;11.432;2022-12-13T05:38:13;16.93;;;7.10;;
23179;SDS011;11758;45.756;11.432;2022-12-13T05:40:39;24.70;;;7.87;;
23179;SDS011;11758;45.756;11.432;2022-12-13T05:43:07;27.03;;;8.50;;
23179;SDS011;11758;45.756;11.432;2022-12-13T05:45:34;8.53;;;4.90;;
23179;SDS011;11758;45.756;11.432;2022-12-13T05:48:01;17.57;;;8.10;;
23179;SDS011;11758;45.756;11.432;2022-12-13T05:50:30;35.27;;;13.57;;
23179;SDS011;11758;45.756;11.432;2022-12-13T05:52:56;25.47;;;10.87;;
23179;SDS011;11758;45.756;11.432;2022-12-13T05:55:22;18.43;;;8.77;;
23179;SDS011;11758;45.756;11.432;2022-12-13T05:57:48;11.60;;;5.90;;
23179;SDS011;11758;45.756;11.432;2022-12-13T06:00:15;8.60;;;5.40;;
23179;SDS011;11758;45.756;11.432;2022-12-13T06:02:41;6.23;;;4.57;;
23179;SDS011;11758;45.756;11.432;2022-12-13T06:05:08;14.23;;;5.23;;
23179;SDS011;11758;45.756;11.432;2022-12-13T06:07:35;9.80;;;5.67;;
23179;SDS011;11758;45.756;11.432;2022-12-13T06:10:02;14.73;;;7.07;;
23179;SDS011;11758;45.756;11.432;2022-12-13T06:12:35;8.50;;;5.57;;
23179;SDS011;11758;45.756;11.432;2022-12-13T06:15:01;15.77;;;7.63;;
23179;SDS011;11758;45.756;11.432;2022-12-13T06:17:34;18.50;;;7.13;;
23179;SDS011;11758;45.756;11.432;2022-12-13T06:20:00;12.73;;;6.00;;
23179;SDS011;11758;45.756;11.432;2022-12-13T06:22:27;11.93;;;6.30;;
23179;SDS011;11758;45.756;11.432;2022-12-13T06:24:53;12.93;;;6.87;;
23179;SDS011;11758;45.756;11.432;2022-12-13T06:27:19;11.17;;;6.53;;
23179;SDS011;11758;45.756;11.432;2022-12-13T06:29:46;15.30;;;7.73;;
23179;SDS011;11758;45.756;11.432;2022-12-13T06:32:12;15.97;;;8.17;;
23179;SDS011;11758;45.756;11.432;2022-12-13T06:34:38;9.97;;;5.80;;
23179;SDS011;11758;45.756;11.432;2022-12-13T06:37:09;8.30;;;5.03;;
23179;SDS011;11758;45.756;11.432;2022-12-13T06:39:41;14.23;;;5.10;;
23179;SDS011;11758;45.756;11.432;2022-12-13T06:42:13;8.63;;;4.93;;
23179;SDS011;11758;45.756;11.432;2022-12-13T06:44:40;6.80;;;4.80;;
23179;SDS011;11758;45.756;11.432;2022-12-13T06:47:06;7.50;;;4.60;;
23179;SDS011;11758;45.756;11.432;2022-12-13T06:49:32;4.80;;;4.30;;
23179;SDS011;11758;45.756;11.432;2022-12-13T06:51:59;9.93;;;5.10;;
23179;SDS011;11758;45.756;11.432;2022-12-13T06:54:25;11.70;;;6.50;;
23179;SDS011;11758;45.756;11.432;2022-12-13T06:56:51;14.90;;;7.00;;
23179;SDS011;11758;45.756;11.432;2022-12-13T06:59:17;11.53;;;6.30;;
23179;SDS011;11758;45.756;11.432;2022-12-13T07:01:43;8.00;;;5.50;;
23179;SDS011;11758;45.756;11.432;2022-12-13T07:04:10;10.73;;;5.73;;
23179;SDS011;11758;45.756;11.432;2022-12-13T07:06:36;10.30;;;6.13;;
23179;SDS011;11758;45.756;11.432;2022-12-13T07:09:02;15.00;;;5.80;;
23179;SDS011;11758;45.756;11.432;2022-12-13T07:11:29;14.07;;;7.77;;
23179;SDS011;11758;45.756;11.432;2022-12-13T07:13:57;12.33;;;7.33;;
23179;SDS011;11758;45.756;11.432;2022-12-13T07:16:23;12.00;;;7.70;;
23179;SDS011;11758;45.756;11.432;2022-12-13T07:18:59;16.47;;;8.13;;
23179;SDS011;11758;45.756;11.432;2022-12-13T07:21:25;14.80;;;7.50;;
23179;SDS011;11758;45.756;11.432;2022-12-13T07:23:51;8.00;;;4.73;;
23179;SDS011;11758;45.756;11.432;2022-12-13T07:26:18;8.43;;;4.57;;
23179;SDS011;11758;45.756;11.432;2022-12-13T07:28:44;8.97;;;4.77;;
23179;SDS011;11758;45.756;11.432;2022-12-13T07:31:11;10.07;;;5.20;;
23179;SDS011;11758;45.756;11.432;2022-12-13T07:33:37;10.67;;;6.07;;
23179;SDS011;11758;45.756;11.432;2022-12-13T07:36:04;18.73;;;8.67;;
23179;SDS011;11758;45.756;11.432;2022-12-13T07:38:31;10.33;;;6.97;;
23179;SDS011;11758;45.756;11.432;2022-12-13T07:40:58;11.80;;;6.67;;
23179;SDS011;11758;45.756;11.432;2022-12-13T07:43:24;9.47;;;5.70;;
23179;SDS011;11758;45.756;11.432;2022-12-13T07:45:50;13.43;;;5.27;;
23179;SDS011;11758;45.756;11.432;2022-12-13T07:48:17;5.40;;;4.33;;
23179;SDS011;11758;45.756;11.432;2022-12-13T07:50:43;7.20;;;4.50;;
23179;SDS011;11758;45.756;11.432;2022-12-13T07:53:09;10.10;;;5.97;;
23179;SDS011;11758;45.756;11.432;2022-12-13T07:55:36;6.97;;;3.90;;
23179;SDS011;11758;45.756;11.432;2022-12-13T07:58:06;5.90;;;3.50;;
23179;SDS011;11758;45.756;11.432;2022-12-13T08:00:32;4.67;;;3.30;;
23179;SDS011;11758;45.756;11.432;2022-12-13T08:02:59;5.10;;;3.73;;
23179;SDS011;11758;45.756;11.432;2022-12-13T08:05:26;7.47;;;4.70;;
23179;SDS011;11758;45.756;11.432;2022-12-13T08:07:53;6.87;;;4.30;;
23179;SDS011;11758;45.756;11.432;2022-12-13T08:10:30;7.53;;;4.23;;
23179;SDS011;11758;45.756;11.432;2022-12-13T08:13:35;5.97;;;3.93;;
23179;SDS011;11758;45.756;11.432;2022-12-13T08:16:03;5.73;;;3.43;;
23179;SDS011;11758;45.756;11.432;2022-12-13T08:18:31;5.00;;;3.70;;
23179;SDS011;11758;45.756;11.432;2022-12-13T08:24:00;45.60;;;15.30;;
23179;SDS011;11758;45.756;11.432;2022-12-13T08:26:26;137.57;;;36.13;;
23179;SDS011;11758;45.756;11.432;2022-12-13T08:28:52;26.67;;;8.90;;
23179;SDS011;11758;45.756;11.432;2022-12-13T08:31:18;13.43;;;6.07;;
23179;SDS011;11758;45.756;11.432;2022-12-13T08:33:45;9.73;;;6.27;;
23179;SDS011;11758;45.756;11.432;2022-12-13T08:36:13;7.33;;;4.63;;
23179;SDS011;11758;45.756;11.432;2022-12-13T08:38:40;11.13;;;5.17;;
23179;SDS011;11758;45.756;11.432;2022-12-13T08:41:06;10.30;;;5.23;;
23179;SDS011;11758;45.756;11.432;2022-12-13T08:43:33;6.60;;;4.43;;
23179;SDS011;11758;45.756;11.432;2022-12-13T08:46:00;8.47;;;4.90;;
23179;SDS011;11758;45.756;11.432;2022-12-13T08:48:26;11.77;;;5.10;;
23179;SDS011;11758;45.756;11.432;2022-12-13T08:50:52;7.83;;;5.30;;
23179;SDS011;11758;45.756;11.432;2022-12-13T08:53:18;7.67;;;5.13;;
23179;SDS011;11758;45.756;11.432;2022-12-13T08:55:45;7.57;;;4.93;;
23179;SDS011;11758;45.756;11.432;2022-12-13T08:58:11;11.37;;;4.90;;
23179;SDS011;11758;45.756;11.432;2022-12-13T09:00:38;10.13;;;5.07;;
23179;SDS011;11758;45.756;11.432;2022-12-13T09:03:06;8.63;;;4.97;;
23179;SDS011;11758;45.756;11.432;2022-12-13T09:05:32;8.77;;;5.23;;
23179;SDS011;11758;45.756;11.432;2022-12-13T09:07:58;14.97;;;5.57;;
23179;SDS011;11758;45.756;11.432;2022-12-13T09:13:33;6.60;;;4.70;;
23179;SDS011;11758;45.756;11.432;2022-12-13T09:16:10;6.53;;;4.10;;
23179;SDS011;11758;45.756;11.432;2022-12-13T09:18:37;5.13;;;4.63;;
23179;SDS011;11758;45.756;11.432;2022-12-13T09:21:07;5.83;;;4.23;;
23179;SDS011;11758;45.756;11.432;2022-12-13T09:23:34;7.73;;;5.10;;
23179;SDS011;11758;45.756;11.432;2022-12-13T09:26:00;9.60;;;5.67;;
23179;SDS011;11758;45.756;11.432;2022-12-13T09:28:27;15.77;;;6.43;;
23179;SDS011;11758;45.756;11.432;2022-12-13T09:30:56;18.53;;;7.00;;
23179;SDS011;11758;45.756;11.432;2022-12-13T09:33:22;18.20;;;7.17;;
23179;SDS011;11758;45.756;11.432;2022-12-13T09:35:49;12.00;;;7.40;;
23179;SDS011;11758;45.756;11.432;2022-12-13T09:38:16;12.70;;;7.73;;
23179;SDS011;11758;45.756;11.432;2022-12-13T09:40:43;20.53;;;10.00;;
23179;SDS011;11758;45.756;11.432;2022-12-13T09:43:20;17.00;;;10.20;;
23179;SDS011;11758;45.756;11.432;2022-12-13T09:45:48;20.07;;;11.17;;
23179;SDS011;11758;45.756;11.432;2022-12-13T09:48:16;16.63;;;9.67;;
23179;SDS011;11758;45.756;11.432;2022-12-13T09:50:43;17.87;;;10.10;;
23179;SDS011;11758;45.756;11.432;2022-12-13T09:53:10;17.63;;;10.27;;
23179;SDS011;11758;45.756;11.432;2022-12-13T09:55:41;24.07;;;11.97;;
23179;SDS011;11758;45.756;11.432;2022-12-13T09:58:10;16.97;;;7.37;;
23179;SDS011;11758;45.756;11.432;2022-12-13T10:00:38;14.00;;;8.07;;
23179;SDS011;11758;45.756;11.432;2022-12-13T10:03:04;13.03;;;7.73;;
23179;SDS011;11758;45.756;11.432;2022-12-13T10:05:33;60.03;;;26.67;;
23179;SDS011;11758;45.756;11.432;2022-12-13T10:10:31;20.87;;;9.80;;
23179;SDS011;11758;45.756;11.432;2022-12-13T10:13:00;20.47;;;9.37;;
23179;SDS011;11758;45.756;11.432;2022-12-13T10:15:28;13.03;;;7.87;;
23179;SDS011;11758;45.756;11.432;2022-12-13T10:17:56;13.03;;;7.90;;
23179;SDS011;11758;45.756;11.432;2022-12-13T10:20:23;15.17;;;7.37;;
23179;SDS011;11758;45.756;11.432;2022-12-13T10:22:52;11.13;;;7.13;;
23179;SDS011;11758;45.756;11.432;2022-12-13T10:25:38;15.17;;;7.40;;
23179;SDS011;11758;45.756;11.432;2022-12-13T10:28:05;11.03;;;6.80;;
23179;SDS011;11758;45.756;11.432;2022-12-13T10:30:37;11.13;;;6.80;;
23179;SDS011;11758;45.756;11.432;2022-12-13T10:33:04;16.83;;;8.10;;
23179;SDS011;11758;45.756;11.432;2022-12-13T10:35:31;16.17;;;9.00;;
23179;SDS011;11758;45.756;11.432;2022-12-13T10:38:41;14.13;;;8.10;;
23179;SDS011;11758;45.756;11.432;2022-12-13T10:40:47;25.70;;;12.23;;
23179;SDS011;11758;45.756;11.432;2022-12-13T10:43:18;45.23;;;18.80;;
23179;SDS011;11758;45.756;11.432;2022-12-13T10:48:39;18.17;;;10.77;;
23179;SDS011;11758;45.756;11.432;2022-12-13T10:51:12;13.97;;;8.90;;
23179;SDS011;11758;45.756;11.432;2022-12-13T10:53:39;18.33;;;8.57;;
23179;SDS011;11758;45.756;11.432;2022-12-13T10:56:06;13.87;;;8.33;;
23179;SDS011;11758;45.756;11.432;2022-12-13T10:58:34;14.93;;;8.27;;
23179;SDS011;11758;45.756;11.432;2022-12-13T11:01:08;11.70;;;8.33;;
23179;SDS011;11758;45.756;11.432;2022-12-13T11:03:35;30.93;;;14.87;;
23179;SDS011;11758;45.756;11.432;2022-12-13T11:06:06;18.50;;;8.80;;
23179;SDS011;11758;45.756;11.432;2022-12-13T11:08:36;22.47;;;10.40;;
23179;SDS011;11758;45.756;11.432;2022-12-13T11:11:03;17.00;;;9.63;;
23179;SDS011;11758;45.756;11.432;2022-12-13T11:16:04;6.77;;;4.50;;
23179;SDS011;11758;45.756;11.432;2022-12-13T11:18:37;6.13;;;4.23;;
23179;SDS011;11758;45.756;11.432;2022-12-13T11:24:01;8.13;;;3.83;;
23179;SDS011;11758;45.756;11.432;2022-12-13T11:26:29;5.77;;;4.10;;
23179;SDS011;11758;45.756;11.432;2022-12-13T11:37:23;5.97;;;3.70;;
23179;SDS011;11758;45.756;11.432;2022-12-13T11:39:37;14.87;;;5.30;;
23179;SDS011;11758;45.756;11.432;2022-12-13T11:47:30;8.63;;;5.67;;
23179;SDS011;11758;45.756;11.432;2022-12-13T11:49:59;15.50;;;5.77;;
23179;SDS011;11758;45.756;11.432;2022-12-13T11:52:28;9.57;;;5.07;;
23179;SDS011;11758;45.756;11.432;2022-12-13T11:54:57;15.97;;;5.30;;
23179;SDS011;11758;45.756;11.432;2022-12-13T11:57:32;8.87;;;4.43;;
23179;SDS011;11758;45.756;11.432;2022-12-13T12:02:42;8.33;;;3.90;;
23179;SDS011;11758;45.756;11.432;2022-12-13T12:05:56;8.03;;;4.80;;
23179;SDS011;11758;45.756;11.432;2022-12-13T12:08:04;13.33;;;6.00;;
23179;SDS011;11758;45.756;11.432;2022-12-13T12:10:32;17.17;;;7.73;;
23179;SDS011;11758;45.756;11.432;2022-12-13T12:13:06;15.60;;;6.57;;
23179;SDS011;11758;45.756;11.432;2022-12-13T12:15:42;11.67;;;5.73;;
23179;SDS011;11758;45.756;11.432;2022-12-13T12:18:13;7.43;;;4.80;;
23179;SDS011;11758;45.756;11.432;2022-12-13T12:31:00;12.67;;;6.50;;
23179;SDS011;11758;45.756;11.432;2022-12-13T12:41:16;16.93;;;9.23;;
23179;SDS011;11758;45.756;11.432;2022-12-13T12:43:46;15.97;;;7.20;;
23179;SDS011;11758;45.756;11.432;2022-12-13T12:57:08;16.70;;;6.97;;
23179;SDS011;11758;45.756;11.432;2022-12-13T12:59:42;20.73;;;7.63;;
23179;SDS011;11758;45.756;11.432;2022-12-13T13:04:38;17.57;;;7.43;;
23179;SDS011;11758;45.756;11.432;2022-12-13T13:07:12;11.27;;;6.30;;
23179;SDS011;11758;45.756;11.432;2022-12-13T13:09:40;8.40;;;5.37;;
23179;SDS011;11758;45.756;11.432;2022-12-13T13:12:07;10.43;;;5.80;;
23179;SDS011;11758;45.756;11.432;2022-12-13T13:14:35;19.23;;;6.70;;
23179;SDS011;11758;45.756;11.432;2022-12-13T13:19:42;15.30;;;6.50;;
23179;SDS011;11758;45.756;11.432;2022-12-13T13:27:41;18.57;;;8.90;;
23179;SDS011;11758;45.756;11.432;2022-12-13T13:30:20;13.73;;;8.10;;
23179;SDS011;11758;45.756;11.432;2022-12-13T13:32:48;33.83;;;14.53;;
23179;SDS011;11758;45.756;11.432;2022-12-13T13:37:54;49.30;;;19.10;;
23179;SDS011;11758;45.756;11.432;2022-12-13T13:43:05;33.00;;;14.23;;
23179;SDS011;11758;45.756;11.432;2022-12-13T13:56:19;18.92;;;11.00;;
23179;SDS011;11758;45.756;11.432;2022-12-13T14:04:23;17.67;;;11.60;;
23179;SDS011;11758;45.756;11.432;2022-12-13T14:10:01;15.97;;;8.30;;
23179;SDS011;11758;45.756;11.432;2022-12-13T14:12:47;15.73;;;8.43;;
23179;SDS011;11758;45.756;11.432;2022-12-13T14:15:28;17.17;;;9.50;;
23179;SDS011;11758;45.756;11.432;2022-12-13T14:25:48;29.23;;;11.55;;
23179;SDS011;11758;45.756;11.432;2022-12-13T14:30:52;31.00;;;13.60;;
23179;SDS011;11758;45.756;11.432;2022-12-13T14:33:19;29.40;;;16.17;;
23179;SDS011;11758;45.756;11.432;2022-12-13T14:35:50;33.35;;;18.05;;
23179;SDS011;11758;45.756;11.432;2022-12-13T14:38:21;32.70;;;18.33;;
23179;SDS011;11758;45.756;11.432;2022-12-13T14:40:49;30.87;;;16.43;;
23179;SDS011;11758;45.756;11.432;2022-12-13T14:46:09;20.23;;;12.15;;
23179;SDS011;11758;45.756;11.432;2022-12-13T14:48:48;17.52;;;10.93;;
23179;SDS011;11758;45.756;11.432;2022-12-13T14:51:35;19.10;;;11.37;;
23179;SDS011;11758;45.756;11.432;2022-12-13T14:54:04;15.50;;;9.50;;
23179;SDS011;11758;45.756;11.432;2022-12-13T14:56:31;19.43;;;10.33;;
23179;SDS011;11758;45.756;11.432;2022-12-13T14:59:01;18.97;;;9.87;;
23179;SDS011;11758;45.756;11.432;2022-12-13T15:01:32;23.10;;;9.57;;
23179;SDS011;11758;45.756;11.432;2022-12-13T15:06:44;50.33;;;10.53;;
23179;SDS011;11758;45.756;11.432;2022-12-13T15:09:12;36.65;;;11.15;;
23179;SDS011;11758;45.756;11.432;2022-12-13T15:11:39;16.88;;;10.38;;
23179;SDS011;11758;45.756;11.432;2022-12-13T15:14:12;21.55;;;13.23;;
23179;SDS011;11758;45.756;11.432;2022-12-13T15:16:47;27.23;;;15.48;;
23179;SDS011;11758;45.756;11.432;2022-12-13T15:19:21;29.17;;;18.00;;
23179;SDS011;11758;45.756;11.432;2022-12-13T15:21:57;23.27;;;14.25;;
23179;SDS011;11758;45.756;11.432;2022-12-13T15:27:27;30.53;;;13.37;;
23179;SDS011;11758;45.756;11.432;2022-12-13T15:29:54;25.37;;;13.53;;
23179;SDS011;11758;45.756;11.432;2022-12-13T15:32:20;39.73;;;20.17;;
23179;SDS011;11758;45.756;11.432;2022-12-13T15:37:51;39.97;;;15.40;;
23179;SDS011;11758;45.756;11.432;2022-12-13T15:40:17;18.53;;;9.70;;
23179;SDS011;11758;45.756;11.432;2022-12-13T15:45:27;32.60;;;13.77;;
23179;SDS011;11758;45.756;11.432;2022-12-13T15:47:54;32.40;;;13.10;;
23179;SDS011;11758;45.756;11.432;2022-12-13T15:53:25;16.70;;;9.47;;
23179;SDS011;11758;45.756;11.432;2022-12-13T15:55:51;34.37;;;15.33;;
23179;SDS011;11758;45.756;11.432;2022-12-13T15:58:28;25.23;;;12.87;;
23179;SDS011;11758;45.756;11.432;2022-12-13T16:00:57;17.17;;;9.07;;
23179;SDS011;11758;45.756;11.432;2022-12-13T16:03:39;20.93;;;10.57;;
23179;SDS011;11758;45.756;11.432;2022-12-13T16:06:09;43.60;;;19.87;;
23179;SDS011;11758;45.756;11.432;2022-12-13T16:08:42;29.53;;;14.60;;
23179;SDS011;11758;45.756;11.432;2022-12-13T16:11:15;27.83;;;13.37;;
23179;SDS011;11758;45.756;11.432;2022-12-13T16:14:36;18.83;;;8.97;;
23179;SDS011;11758;45.756;11.432;2022-12-13T16:19:32;15.40;;;5.83;;
23179;SDS011;11758;45.756;11.432;2022-12-13T16:21:58;5.87;;;4.17;;
23179;SDS011;11758;45.756;11.432;2022-12-13T16:24:24;12.20;;;5.20;;
23179;SDS011;11758;45.756;11.432;2022-12-13T16:26:51;13.83;;;4.80;;
23179;SDS011;11758;45.756;11.432;2022-12-13T16:29:17;13.03;;;6.50;;
23179;SDS011;11758;45.756;11.432;2022-12-13T16:31:52;34.20;;;11.60;;
23179;SDS011;11758;45.756;11.432;2022-12-13T16:34:21;48.83;;;19.63;;
23179;SDS011;11758;45.756;11.432;2022-12-13T16:36:47;30.10;;;13.63;;
23179;SDS011;11758;45.756;11.432;2022-12-13T16:39:13;30.33;;;14.10;;
23179;SDS011;11758;45.756;11.432;2022-12-13T16:41:40;45.60;;;14.43;;
23179;SDS011;11758;45.756;11.432;2022-12-13T16:44:07;21.67;;;11.37;;
23179;SDS011;11758;45.756;11.432;2022-12-13T16:46:34;15.27;;;6.37;;
23179;SDS011;11758;45.756;11.432;2022-12-13T16:49:04;20.37;;;6.70;;
23179;SDS011;11758;45.756;11.432;2022-12-13T16:51:33;24.60;;;9.30;;
23179;SDS011;11758;45.756;11.432;2022-12-13T16:53:59;30.03;;;11.77;;
23179;SDS011;11758;45.756;11.432;2022-12-13T16:56:25;15.30;;;7.10;;
23179;SDS011;11758;45.756;11.432;2022-12-13T16:58:52;14.70;;;6.10;;
23179;SDS011;11758;45.756;11.432;2022-12-13T17:01:19;20.30;;;9.47;;
23179;SDS011;11758;45.756;11.432;2022-12-13T17:03:45;15.17;;;8.00;;
23179;SDS011;11758;45.756;11.432;2022-12-13T17:06:11;9.37;;;5.47;;
23179;SDS011;11758;45.756;11.432;2022-12-13T17:08:39;8.73;;;4.57;;
23179;SDS011;11758;45.756;11.432;2022-12-13T17:11:05;15.43;;;3.90;;
23179;SDS011;11758;45.756;11.432;2022-12-13T17:13:33;59.07;;;6.50;;
23179;SDS011;11758;45.756;11.432;2022-12-13T17:16:02;34.37;;;4.47;;
23179;SDS011;11758;45.756;11.432;2022-12-13T17:18:28;27.80;;;4.23;;